Allenwood, PA

5:28 AM EDT on September 15, 2014 (GMT -0400)
Elimsport | Change Station
CLOSE
Current Station
Personal Weather Station
Location: Montgomery, PA
Elevation: 643 ft
Nearby Weather Stations

Elev 643 ft 41.17 °N, 76.98 °W | Updated 4 seconds ago

Overcast
Overcast
44.8 °F
Feels Like 45 °F
N
1.1
Wind Variable Wind from West
Gusts 1.1 mph

Today
High -- | Low -- °F
--% Chance of Precip.
Yesterday
High -- | Low -- °F
Precip. -- in
6:48 AM 7:17 PM
Waning Gibbous, 57% visible
Pressure 30.25 in
Visibility 7.0 miles
Clouds Overcast 200 ft
Windchill 45 °F
Dew Point 44 °F
Humidity 98%
Rainfall 0.00 in
Snow Depth Not available.
UV 0 out of 12
Pollen 4.00 out of 12
Air Quality Not available.
Flu Activity Not available.
METAR KIPT 150854Z AUTO 31003KT 7SM OVC002 09/08 A3024 RMK AO2 SLP241 T00890078 53003

More Conditions Fewer Conditions

Pressure 30.25 in
Visibility 7.0 miles
Clouds Overcast 200 ft
Windchill 45 °F
Dew Point 44 °F
Humidity 98%
Rainfall 0.00 in
Snow Depth Not available.
UV 0 out of 12
Pollen 4.00 out of 12
Air Quality Not available.
Flu Activity Not available.
METAR KIPT 150854Z AUTO 31003KT 7SM OVC002 09/08 A3024 RMK AO2 SLP241 T00890078 53003

More Conditions Fewer Conditions

10-Day Weather Forecast

Almanac

Astronomy

Sep. 15, 2014 Rise Set
Actual Time 6:48 AM EDT 7:17 PM EDT
Civil Twilight 6:20 AM EDT 7:44 PM EDT
Nautical Twilight 5:48 AM EDT 8:17 PM EDT
Astronomical Twilight 5:14 AM EDT 8:50 PM EDT
Moon 11:55 PM EDT 1:50 PM EDT
Length of Visible Light 13h 23m
Length of Day
12h 28m
Tomorrow will be 2m 42s shorter.
Waning Gibbous, 57% of the Moon is Illuminated
Today
Waning Gibbous
Sep 15
Last Quarter
Sep 24
New
Oct 1
First Quarter
Oct 8
Full

Today's Extremes

State Highs State Lows

Community

WunderPhotos

Upload Photos

1,753,426 photos uploaded!

Nearby

Snow Depth

Station Depth Elevation
No new snow has been reported.

Earthquake Activity

City Distance Mag. Time & Date
No recent earthquake activity has been reported nearby.
Minimum magnitude displayed is 2.5.

Coastal Water Temperatures

Place Temperature
No Stations Reporting

Nearby Weather Stations